Time;durP1;ratioP1;P1;durP2;ratioP2;P2;SDS_P1;SDS_P2;PMS_P1;PMS_P2;Temp;Humidity;BMP_temperature;BMP_pressure;BME280_temperature;BME280_humidity;BME280_pressure;Samples;Min_cycle;Max_cycle;Signal;HPM_P1;HPM_P2
2023/04/10 00:01:04;;;;;;;14.55;9.43;;;;;;;;;;4971882;28;20484;-79
2023/04/10 00:03:30;;;;;;;14.60;10.40;;;;;;;;;;4973164;28;20039;-78
2023/04/10 00:05:56;;;;;;;13.55;9.02;;;;;;;;;;4977358;28;20027;-77
2023/04/10 00:08:23;;;;;;;13.60;9.70;;;;;;;;;;4992575;28;20041;-79
2023/04/10 00:10:50;;;;;;;14.98;9.90;;;;;;;;;;4992425;28;20053;-77
2023/04/10 00:13:19;;;;;;;13.68;9.30;;;;;;;;;;4991365;28;20104;-78
2023/04/10 00:15:45;;;;;;;12.55;9.25;;;;;;;;;;5025880;28;20118;-77
2023/04/10 00:18:13;;;;;;;15.70;10.30;;;;;;;;;;4996460;28;20454;-78
2023/04/10 00:20:38;;;;;;;13.43;10.00;;;;;;;;;;4994766;28;20026;-79
2023/04/10 00:23:05;;;;;;;15.68;11.10;;;;;;;;;;4996543;28;20062;-79
2023/04/10 00:25:32;;;;;;;15.95;10.27;;;;;;;;;;4996598;28;20480;-78
2023/04/10 00:27:59;;;;;;;13.40;9.73;;;;;;;;;;4994976;28;20046;-78
2023/04/10 00:30:25;;;;;;;12.85;9.30;;;;;;;;;;4996252;28;20018;-79
2023/04/10 00:32:51;;;;;;;13.98;9.65;;;;;;;;;;4996134;28;20555;-79
2023/04/10 00:35:17;;;;;;;15.38;9.50;;;;;;;;;;4995305;28;20033;-78
2023/04/10 00:37:43;;;;;;;12.82;9.52;;;;;;;;;;4992049;28;20044;-78
2023/04/10 00:40:09;;;;;;;13.15;9.40;;;;;;;;;;4994674;28;20112;-79
2023/04/10 00:42:35;;;;;;;13.05;9.27;;;;;;;;;;4994856;28;20565;-78
2023/04/10 00:45:01;;;;;;;13.20;9.15;;;;;;;;;;4994612;28;20023;-78
2023/04/10 00:47:28;;;;;;;13.10;9.15;;;;;;;;;;4995748;28;20495;-80
2023/04/10 00:49:54;;;;;;;14.55;9.85;;;;;;;;;;4996047;28;20038;-79
2023/04/10 00:52:20;;;;;;;10.57;8.35;;;;;;;;;;4995771;28;20045;-78
2023/04/10 00:54:46;;;;;;;11.45;7.88;;;;;;;;;;4994718;28;20034;-79
2023/04/10 00:57:12;;;;;;;9.90;8.05;;;;;;;;;;4995647;28;20031;-78
2023/04/10 00:59:39;;;;;;;9.63;6.80;;;;;;;;;;4995790;28;20502;-79
2023/04/10 01:02:07;;;;;;;9.00;6.70;;;;;;;;;;5010517;28;20416;-79
2023/04/10 01:04:33;;;;;;;11.43;7.68;;;;;;;;;;4994299;28;20030;-79
2023/04/10 01:07:16;;;;;;;10.30;6.97;;;;;;;;;;5009838;28;20124;-79
2023/04/10 01:10:03;;;;;;;9.80;6.60;;;;;;;;;;5023477;28;20129;-79
2023/04/10 01:13:05;;;;;;;9.77;6.90;;;;;;;;;;4988432;28;20535;-79
2023/04/10 01:15:41;;;;;;;10.65;7.18;;;;;;;;;;4925174;28;20086;-78
2023/04/10 01:18:30;;;;;;;10.02;7.32;;;;;;;;;;4977792;28;20155;-79
2023/04/10 01:20:58;;;;;;;8.52;6.45;;;;;;;;;;4993260;28;20034;-79
2023/04/10 01:23:52;;;;;;;10.18;6.93;;;;;;;;;;4994852;28;20546;-80
2023/04/10 01:26:57;;;;;;;9.70;7.00;;;;;;;;;;4991659;28;20034;-78
2023/04/10 01:29:28;;;;;;;10.05;7.28;;;;;;;;;;5009480;28;20038;-79
2023/04/10 01:32:15;;;;;;;10.98;7.57;;;;;;;;;;4994784;28;20092;-78
2023/04/10 01:34:43;;;;;;;;;;;;;;;;;;4995118;28;20156;-79
2023/04/10 01:37:20;;;;;;;11.80;7.88;;;;;;;;;;4991779;28;19913;-80
2023/04/10 01:39:51;;;;;;;10.98;8.07;;;;;;;;;;4993116;28;20038;-79
2023/04/10 01:42:21;;;;;;;12.73;8.77;;;;;;;;;;5008046;28;20041;-79
2023/04/10 01:44:49;;;;;;;11.48;8.20;;;;;;;;;;4992787;28;20073;-79
2023/04/10 01:47:16;;;;;;;12.90;8.95;;;;;;;;;;5008143;28;20055;-78
2023/04/10 01:49:47;;;;;;;12.00;8.73;;;;;;;;;;4994002;28;20046;-79
2023/04/10 01:52:15;;;;;;;12.27;8.55;;;;;;;;;;5009204;28;20034;-80
2023/04/10 01:54:47;;;;;;;12.43;8.75;;;;;;;;;;4994172;28;20496;-86
2023/04/10 01:57:20;;;;;;;13.35;8.60;;;;;;;;;;4996144;28;20034;-87
2023/04/10 01:59:54;;;;;;;12.98;8.70;;;;;;;;;;5011429;28;20096;-85
2023/04/10 02:02:20;;;;;;;11.80;8.57;;;;;;;;;;5028004;28;20374;-87
2023/04/10 02:04:50;;;;;;;11.32;8.38;;;;;;;;;;4997801;28;20129;-87
2023/04/10 02:07:22;;;;;;;10.77;8.13;;;;;;;;;;4996966;28;20041;-86
2023/04/10 02:09:50;;;;;;;12.30;8.35;;;;;;;;;;4995738;28;20037;-87
2023/04/10 02:12:44;;;;;;;12.18;8.25;;;;;;;;;;5011545;28;20026;-85
2023/04/10 02:15:11;;;;;;;11.60;7.72;;;;;;;;;;4995076;28;20436;-84
2023/04/10 02:17:42;;;;;;;14.70;8.68;;;;;;;;;;4996962;28;20493;-86
2023/04/10 02:20:10;;;;;;;11.38;8.15;;;;;;;;;;4994660;28;20049;-85
2023/04/10 02:22:37;;;;;;;11.43;7.88;;;;;;;;;;4996362;28;20050;-86
2023/04/10 02:25:05;;;;;;;16.15;9.55;;;;;;;;;;4992523;28;20066;-86
2023/04/10 02:27:33;;;;;;;14.50;9.00;;;;;;;;;;5003545;28;20043;-85
2023/04/10 02:30:02;;;;;;;17.00;9.60;;;;;;;;;;5007654;28;20044;-83
2023/04/10 02:32:30;;;;;;;17.38;8.95;;;;;;;;;;4997610;28;20492;-85
2023/04/10 02:34:57;;;;;;;11.68;8.60;;;;;;;;;;5012051;28;20042;-86
2023/04/10 02:37:23;;;;;;;12.68;8.88;;;;;;;;;;4995068;28;20113;-87
2023/04/10 02:39:51;;;;;;;15.02;9.38;;;;;;;;;;4978581;28;20038;-85
2023/04/10 02:42:19;;;;;;;11.48;8.93;;;;;;;;;;4994628;28;20046;-86
2023/04/10 02:44:47;;;;;;;11.77;8.63;;;;;;;;;;4993918;28;20484;-86
2023/04/10 02:47:13;;;;;;;12.98;9.25;;;;;;;;;;4994262;28;20030;-85
2023/04/10 02:49:43;;;;;;;12.65;9.18;;;;;;;;;;4994126;28;20034;-85
2023/04/10 02:52:13;;;;;;;12.82;9.05;;;;;;;;;;4992782;28;20047;-86
2023/04/10 02:54:39;;;;;;;11.52;8.15;;;;;;;;;;4993905;28;20173;-86
2023/04/10 02:57:05;;;;;;;12.00;8.57;;;;;;;;;;4991892;28;20041;-86
2023/04/10 02:59:32;;;;;;;12.20;9.27;;;;;;;;;;4998447;28;20034;-85
2023/04/10 03:02:00;;;;;;;13.40;8.85;;;;;;;;;;4999452;28;20019;-86
2023/04/10 03:04:31;;;;;;;12.63;9.20;;;;;;;;;;5009581;28;20456;-86
2023/04/10 03:06:57;;;;;;;12.65;9.13;;;;;;;;;;4994774;28;20116;-85
2023/04/10 03:09:23;;;;;;;14.30;9.05;;;;;;;;;;4994664;28;20430;-86
2023/04/10 03:11:49;;;;;;;14.73;9.80;;;;;;;;;;4993416;28;20034;-85
2023/04/10 03:14:16;;;;;;;14.52;10.20;;;;;;;;;;4998137;28;20034;-85
2023/04/10 03:16:42;;;;;;;14.55;10.02;;;;;;;;;;4988614;28;20086;-85
2023/04/10 03:19:08;;;;;;;15.40;10.48;;;;;;;;;;5009010;28;20507;-85
2023/04/10 03:21:34;;;;;;;13.57;10.82;;;;;;;;;;4998475;28;20030;-84
2023/04/10 03:24:01;;;;;;;16.77;11.25;;;;;;;;;;5012996;28;20026;-85
2023/04/10 03:26:27;;;;;;;16.23;11.30;;;;;;;;;;4991924;28;20070;-86
2023/04/10 03:28:53;;;;;;;14.90;10.77;;;;;;;;;;4976112;28;20035;-86
2023/04/10 03:31:19;;;;;;;16.15;11.07;;;;;;;;;;4995335;28;20046;-87
2023/04/10 03:33:46;;;;;;;16.20;10.77;;;;;;;;;;4994911;28;20057;-86
2023/04/10 03:36:12;;;;;;;14.30;10.68;;;;;;;;;;4995117;28;20042;-86
2023/04/10 03:38:37;;;;;;;15.93;10.63;;;;;;;;;;5011888;28;20036;-85
2023/04/10 03:41:05;;;;;;;15.45;10.75;;;;;;;;;;4995275;28;20034;-86
2023/04/10 03:43:32;;;;;;;16.75;10.55;;;;;;;;;;4998882;28;20038;-84
2023/04/10 03:46:00;;;;;;;16.38;11.13;;;;;;;;;;4995791;28;20034;-86
2023/04/10 03:48:27;;;;;;;15.07;10.80;;;;;;;;;;4992660;28;20042;-86
2023/04/10 03:50:54;;;;;;;16.20;10.88;;;;;;;;;;4991752;28;20093;-85
2023/04/10 03:53:20;;;;;;;16.00;11.05;;;;;;;;;;5012890;28;20026;-86
2023/04/10 03:55:45;;;;;;;15.93;11.10;;;;;;;;;;4996202;28;20034;-87
2023/04/10 03:58:12;;;;;;;16.25;10.75;;;;;;;;;;4993243;28;20037;-86
2023/04/10 04:00:39;;;;;;;13.82;10.15;;;;;;;;;;4992224;28;20444;-86
2023/04/10 04:03:19;;;;;;;14.50;9.98;;;;;;;;;;4995066;28;20034;-85
2023/04/10 04:06:00;;;;;;;16.60;10.70;;;;;;;;;;4988488;28;20038;-85
2023/04/10 04:08:37;;;;;;;20.38;11.40;;;;;;;;;;4993189;28;20504;-84
2023/04/10 04:11:22;;;;;;;15.07;9.88;;;;;;;;;;4985091;28;20050;-86
2023/04/10 04:13:57;;;;;;;;;;;;;;;;;;4996757;28;20038;-86
2023/04/10 04:16:41;;;;;;;12.23;8.98;;;;;;;;;;4997529;28;20330;-86
2023/04/10 04:19:29;;;;;;;15.25;10.32;;;;;;;;;;4994269;28;20068;-86
2023/04/10 04:22:19;;;;;;;13.35;9.25;;;;;;;;;;4993349;28;20110;-85
2023/04/10 04:25:10;;;;;;;12.52;8.65;;;;;;;;;;4989486;28;20092;-87
2023/04/10 04:28:00;;;;;;;14.43;10.25;;;;;;;;;;4967475;28;20050;-84
2023/04/10 04:30:38;;;;;;;14.98;9.77;;;;;;;;;;4999184;28;20050;-86
2023/04/10 04:33:17;;;;;;;14.02;10.55;;;;;;;;;;4995047;28;20047;-86
2023/04/10 04:35:56;;;;;;;14.30;9.90;;;;;;;;;;5007271;28;20035;-87
2023/04/10 04:38:48;;;;;;;15.40;10.43;;;;;;;;;;4968985;28;20030;-86
2023/04/10 04:41:36;;;;;;;13.85;10.48;;;;;;;;;;4990102;28;20038;-86
2023/04/10 04:44:35;;;;;;;14.38;10.77;;;;;;;;;;4992857;28;20073;-86
2023/04/10 04:47:23;;;;;;;14.60;10.73;;;;;;;;;;4995517;28;20050;-87
2023/04/10 04:50:21;;;;;;;17.08;12.73;;;;;;;;;;4972890;28;20034;-85
2023/04/10 04:53:22;;;;;;;16.80;11.73;;;;;;;;;;4973934;28;20113;-83
2023/04/10 04:56:04;;;;;;;16.77;11.98;;;;;;;;;;5001287;28;20065;-83
2023/04/10 04:58:42;;;;;;;15.85;10.77;;;;;;;;;;4991805;28;20129;-85
2023/04/10 05:01:30;;;;;;;14.38;11.45;;;;;;;;;;5006375;28;20141;-83
2023/04/10 05:04:27;;;;;;;15.02;10.80;;;;;;;;;;4989631;28;20102;-82
2023/04/10 05:07:09;;;;;;;16.42;12.07;;;;;;;;;;4996063;28;20046;-80
2023/04/10 05:09:51;;;;;;;17.83;12.13;;;;;;;;;;4991105;28;20034;-84
2023/04/10 05:12:36;;;;;;;17.05;11.90;;;;;;;;;;4994202;28;20038;-84
2023/04/10 05:15:17;;;;;;;14.50;10.52;;;;;;;;;;4993357;28;20065;-84
2023/04/10 05:18:10;;;;;;;15.32;10.45;;;;;;;;;;5004776;28;20069;-83
2023/04/10 05:20:54;;;;;;;19.30;11.15;;;;;;;;;;4995264;28;20108;-84
2023/04/10 05:23:42;;;;;;;13.75;9.07;;;;;;;;;;5010456;28;20322;-84
2023/04/10 05:26:29;;;;;;;11.65;8.90;;;;;;;;;;4995160;28;20408;-84
2023/04/10 05:29:10;;;;;;;16.90;9.88;;;;;;;;;;4993762;28;20057;-83
2023/04/10 05:32:04;;;;;;;13.98;10.40;;;;;;;;;;4979493;28;20046;-82
2023/04/10 05:34:59;;;;;;;16.10;10.95;;;;;;;;;;4980987;28;20040;-82
2023/04/10 05:37:33;;;;;;;14.95;10.63;;;;;;;;;;4999753;28;20494;-83
2023/04/10 05:40:22;;;;;;;14.55;10.70;;;;;;;;;;5000483;28;20117;-82
2023/04/10 05:43:06;;;;;;;15.95;11.40;;;;;;;;;;4994683;28;20031;-83
2023/04/10 05:45:55;;;;;;;13.98;10.02;;;;;;;;;;4987460;28;20046;-84
2023/04/10 05:48:52;;;;;;;15.32;10.23;;;;;;;;;;4980231;28;20125;-83
2023/04/10 05:51:31;;;;;;;13.68;10.07;;;;;;;;;;4987496;28;20072;-85
2023/04/10 05:54:27;;;;;;;17.02;10.85;;;;;;;;;;4981649;28;20042;-84
2023/04/10 05:57:03;;;;;;;15.40;9.55;;;;;;;;;;4996838;28;20050;-85
2023/04/10 05:59:49;;;;;;;16.20;11.40;;;;;;;;;;4993728;28;20046;-84
2023/04/10 06:02:34;;;;;;;16.65;10.98;;;;;;;;;;4995603;28;20416;-84
2023/04/10 06:05:02;;;;;;;16.90;11.32;;;;;;;;;;4993399;28;20030;-84
2023/04/10 06:07:32;;;;;;;16.23;11.80;;;;;;;;;;4992808;28;20443;-83
2023/04/10 06:09:58;;;;;;;17.27;11.32;;;;;;;;;;4993054;28;20104;-83
2023/04/10 06:12:25;;;;;;;16.95;11.65;;;;;;;;;;5008805;28;20034;-84
2023/04/10 06:14:52;;;;;;;15.60;11.18;;;;;;;;;;4994099;28;20030;-84
2023/04/10 06:17:20;;;;;;;18.02;12.57;;;;;;;;;;5009457;28;20028;-83
2023/04/10 06:19:49;;;;;;;16.85;10.85;;;;;;;;;;4993487;28;20383;-83
2023/04/10 06:22:16;;;;;;;13.10;10.00;;;;;;;;;;4992990;28;20034;-84
2023/04/10 06:24:43;;;;;;;15.90;11.00;;;;;;;;;;4992725;28;20208;-84
2023/04/10 06:27:11;;;;;;;14.32;10.65;;;;;;;;;;4992811;28;20373;-83
2023/04/10 06:29:37;;;;;;;15.80;10.90;;;;;;;;;;4993068;28;20046;-84
2023/04/10 06:32:03;;;;;;;17.05;11.35;;;;;;;;;;5010358;28;20045;-84
2023/04/10 06:34:33;;;;;;;17.33;11.27;;;;;;;;;;4977672;28;20030;-84
2023/04/10 06:37:03;;;;;;;16.20;11.30;;;;;;;;;;4992966;28;20085;-83
2023/04/10 06:39:28;;;;;;;15.73;9.60;;;;;;;;;;4996881;28;20030;-84
2023/04/10 06:41:55;;;;;;;14.57;9.70;;;;;;;;;;5000011;28;20046;-83
2023/04/10 06:44:39;;;;;;;13.63;9.90;;;;;;;;;;5000782;28;20049;-85
2023/04/10 06:47:07;;;;;;;15.70;9.35;;;;;;;;;;4997317;28;20465;-83
2023/04/10 06:49:33;;;;;;;12.40;9.13;;;;;;;;;;4997351;28;20448;-84
2023/04/10 06:51:59;;;;;;;11.32;8.55;;;;;;;;;;4992760;28;20034;-82
2023/04/10 06:54:25;;;;;;;12.20;8.88;;;;;;;;;;4993957;28;20045;-83
2023/04/10 06:56:50;;;;;;;11.25;8.15;;;;;;;;;;4993190;28;20117;-82
2023/04/10 06:59:16;;;;;;;11.85;7.63;;;;;;;;;;4993872;28;20026;-83
2023/04/10 07:01:43;;;;;;;11.77;7.72;;;;;;;;;;5008391;28;20046;-84
2023/04/10 07:04:10;;;;;;;12.07;8.13;;;;;;;;;;4994137;28;20404;-84
2023/04/10 07:06:37;;;;;;;10.38;7.43;;;;;;;;;;5008536;28;20540;-84
2023/04/10 07:09:04;;;;;;;12.82;8.45;;;;;;;;;;4993635;28;20126;-83
2023/04/10 07:11:31;;;;;;;10.65;7.78;;;;;;;;;;4992261;28;20035;-83
2023/04/10 07:13:59;;;;;;;11.32;8.15;;;;;;;;;;4995013;28;20058;-82
2023/04/10 07:16:25;;;;;;;12.23;9.13;;;;;;;;;;4976047;28;20034;-83
2023/04/10 07:18:50;;;;;;;11.95;8.40;;;;;;;;;;4994261;28;20030;-84
2023/04/10 07:21:18;;;;;;;16.17;11.70;;;;;;;;;;5008548;28;20066;-85
2023/04/10 07:23:44;;;;;;;13.20;9.35;;;;;;;;;;4995400;28;20042;-84
2023/04/10 07:26:10;;;;;;;18.05;10.35;;;;;;;;;;4993941;28;20411;-84
2023/04/10 07:28:38;;;;;;;18.10;10.75;;;;;;;;;;4993391;28;20038;-83
2023/04/10 07:31:07;;;;;;;10.77;7.32;;;;;;;;;;4992144;28;20038;-83
2023/04/10 07:33:33;;;;;;;9.13;6.50;;;;;;;;;;5008740;28;20034;-84
2023/04/10 07:36:01;;;;;;;7.70;5.63;;;;;;;;;;4994073;28;20419;-83
2023/04/10 07:38:27;;;;;;;9.48;6.85;;;;;;;;;;4993537;28;20030;-84
2023/04/10 07:40:56;;;;;;;9.18;7.40;;;;;;;;;;4994883;28;20041;-84
2023/04/10 07:43:22;;;;;;;8.45;5.97;;;;;;;;;;4993663;28;20033;-84
2023/04/10 07:45:48;;;;;;;9.63;6.82;;;;;;;;;;4992377;28;20030;-83
2023/04/10 07:48:13;;;;;;;9.07;6.32;;;;;;;;;;4993752;28;20174;-83
2023/04/10 07:50:39;;;;;;;9.10;6.68;;;;;;;;;;4996763;28;20183;-84
2023/04/10 07:53:09;;;;;;;8.32;6.03;;;;;;;;;;5009725;28;20488;-83
2023/04/10 07:55:48;;;;;;;10.07;6.15;;;;;;;;;;4975621;28;20160;-84
2023/04/10 07:58:15;;;;;;;9.32;6.90;;;;;;;;;;4994106;28;20400;-84
2023/04/10 08:00:41;;;;;;;8.73;5.72;;;;;;;;;;4993717;28;20076;-84
2023/04/10 08:03:07;;;;;;;7.68;5.68;;;;;;;;;;4992826;28;20475;-85
2023/04/10 08:05:35;;;;;;;8.45;5.10;;;;;;;;;;5008083;28;20120;-83
2023/04/10 08:08:02;;;;;;;6.80;4.93;;;;;;;;;;5007688;28;20042;-84
2023/04/10 08:10:28;;;;;;;7.40;5.50;;;;;;;;;;4992943;28;20065;-83
2023/04/10 08:12:56;;;;;;;6.63;5.38;;;;;;;;;;4992870;28;20041;-83
2023/04/10 08:15:23;;;;;;;7.18;5.50;;;;;;;;;;5007368;28;20018;-84
2023/04/10 08:17:52;;;;;;;6.88;4.35;;;;;;;;;;4992817;28;20117;-84
2023/04/10 08:20:18;;;;;;;7.47;5.20;;;;;;;;;;4992609;28;20023;-83
2023/04/10 08:22:44;;;;;;;5.93;4.65;;;;;;;;;;4992443;28;20048;-83
2023/04/10 08:25:10;;;;;;;9.43;5.55;;;;;;;;;;4991188;28;20026;-85
2023/04/10 08:27:42;;;;;;;6.82;4.90;;;;;;;;;;4993334;28;20085;-86
2023/04/10 08:30:08;;;;;;;6.45;4.30;;;;;;;;;;4993374;28;20050;-84
2023/04/10 08:33:24;;;;;;;7.13;4.50;;;;;;;;;;4993004;28;20100;-86
2023/04/10 08:35:50;;;;;;;13.60;5.35;;;;;;;;;;5003632;28;20042;-83
2023/04/10 08:38:16;;;;;;;9.95;5.20;;;;;;;;;;4978348;28;20038;-85
2023/04/10 08:40:43;;;;;;;19.73;5.13;;;;;;;;;;4996583;28;20038;-84
2023/04/10 08:43:10;;;;;;;11.00;4.55;;;;;;;;;;4997356;28;20045;-83
2023/04/10 08:45:39;;;;;;;11.68;5.00;;;;;;;;;;5012451;28;20399;-83
2023/04/10 08:48:07;;;;;;;13.60;4.65;;;;;;;;;;4996855;28;20030;-85
2023/04/10 08:50:37;;;;;;;13.05;5.13;;;;;;;;;;5011742;28;20038;-84
2023/04/10 08:53:07;;;;;;;6.68;4.40;;;;;;;;;;4996007;28;20065;-84
2023/04/10 08:55:34;;;;;;;25.13;6.00;;;;;;;;;;4995972;28;20120;-85
2023/04/10 08:58:01;;;;;;;14.57;5.22;;;;;;;;;;4996285;28;20038;-85
2023/04/10 09:00:27;;;;;;;10.77;5.00;;;;;;;;;;5011170;28;20034;-84
2023/04/10 09:02:56;;;;;;;23.85;5.63;;;;;;;;;;4996050;28;20028;-84
2023/04/10 09:05:26;;;;;;;16.48;5.22;;;;;;;;;;4998735;28;20034;-85
2023/04/10 09:07:54;;;;;;;27.60;7.00;;;;;;;;;;4994727;28;20126;-83
2023/04/10 09:10:21;;;;;;;7.07;4.28;;;;;;;;;;4997813;28;20046;-84
2023/04/10 09:12:48;;;;;;;9.27;4.93;;;;;;;;;;4995777;28;20081;-84
2023/04/10 09:15:15;;;;;;;10.77;5.35;;;;;;;;;;4995705;28;20026;-84
2023/04/10 09:18:00;;;;;;;10.18;5.07;;;;;;;;;;4995452;28;20084;-83
2023/04/10 09:20:29;;;;;;;7.78;4.90;;;;;;;;;;4995953;28;20037;-84
2023/04/10 09:22:55;;;;;;;21.95;7.20;;;;;;;;;;4995538;28;20026;-84
2023/04/10 09:25:40;;;;;;;14.85;6.15;;;;;;;;;;4996570;28;20472;-85
2023/04/10 09:28:07;;;;;;;8.90;4.97;;;;;;;;;;4994087;28;20045;-84
2023/04/10 09:30:35;;;;;;;8.68;4.50;;;;;;;;;;4993343;28;20057;-86
2023/04/10 09:33:01;;;;;;;9.43;3.97;;;;;;;;;;4993960;28;20039;-84
2023/04/10 09:35:37;;;;;;;7.07;4.50;;;;;;;;;;4965334;28;20031;-85
2023/04/10 09:38:24;;;;;;;7.40;4.43;;;;;;;;;;4982810;28;20039;-86
2023/04/10 09:40:50;;;;;;;9.18;4.90;;;;;;;;;;4979864;28;20073;-84
2023/04/10 09:43:24;;;;;;;19.00;8.70;;;;;;;;;;4986147;28;20070;-85
2023/04/10 09:45:55;;;;;;;18.73;5.80;;;;;;;;;;4979365;28;20069;-84
2023/04/10 09:48:23;;;;;;;13.95;5.55;;;;;;;;;;4973753;28;20378;-85
2023/04/10 09:50:50;;;;;;;6.97;3.92;;;;;;;;;;4980194;28;20039;-84
2023/04/10 09:53:19;;;;;;;16.73;6.35;;;;;;;;;;4984867;28;20042;-83
2023/04/10 09:55:46;;;;;;;27.02;7.22;;;;;;;;;;4984313;28;20031;-84
2023/04/10 09:58:13;;;;;;;8.35;4.75;;;;;;;;;;4984461;28;20046;-84
2023/04/10 10:00:45;;;;;;;7.70;4.07;;;;;;;;;;4989181;28;20034;-83
2023/04/10 10:03:19;;;;;;;6.70;4.07;;;;;;;;;;4991491;28;20083;-85
2023/04/10 10:05:50;;;;;;;7.18;4.50;;;;;;;;;;4994815;28;20042;-82
2023/04/10 10:08:17;;;;;;;8.77;4.18;;;;;;;;;;4995005;28;20427;-84
2023/04/10 10:10:50;;;;;;;7.95;4.20;;;;;;;;;;4990261;28;20122;-82
2023/04/10 10:13:23;;;;;;;6.32;5.03;;;;;;;;;;4994253;28;20050;-83
2023/04/10 10:16:05;;;;;;;12.68;4.65;;;;;;;;;;4977203;28;20038;-83
2023/04/10 10:18:55;;;;;;;12.40;5.47;;;;;;;;;;4994597;28;20141;-83
2023/04/10 10:21:25;;;;;;;7.40;4.47;;;;;;;;;;4980970;28;20041;-84
2023/04/10 10:23:53;;;;;;;9.38;5.40;;;;;;;;;;4996378;28;20049;-86
2023/04/10 10:26:22;;;;;;;8.93;5.13;;;;;;;;;;4987452;28;20034;-84
2023/04/10 10:28:50;;;;;;;10.50;5.88;;;;;;;;;;4979111;28;20049;-85
2023/04/10 10:31:18;;;;;;;8.48;4.72;;;;;;;;;;4981955;28;20579;-84
2023/04/10 10:33:46;;;;;;;6.75;4.80;;;;;;;;;;4981649;28;20061;-83
2023/04/10 10:36:15;;;;;;;7.00;4.70;;;;;;;;;;5000575;28;20030;-83
2023/04/10 10:38:53;;;;;;;12.10;5.97;;;;;;;;;;5000394;28;20038;-85
2023/04/10 10:41:37;;;;;;;12.73;5.63;;;;;;;;;;4983840;28;20104;-84
2023/04/10 10:44:16;;;;;;;9.63;4.88;;;;;;;;;;4985626;28;20054;-83
2023/04/10 10:46:55;;;;;;;7.90;5.40;;;;;;;;;;4979949;28;20043;-83
2023/04/10 10:49:21;;;;;;;10.63;4.78;;;;;;;;;;4980515;28;20058;-84
2023/04/10 10:51:50;;;;;;;9.85;4.70;;;;;;;;;;4982133;28;20125;-85
2023/04/10 10:54:34;;;;;;;8.82;4.85;;;;;;;;;;4981376;28;20520;-83
2023/04/10 10:57:02;;;;;;;9.02;5.28;;;;;;;;;;4982517;28;20034;-84
2023/04/10 10:59:48;;;;;;;13.65;6.18;;;;;;;;;;4980753;28;20485;-84
2023/04/10 11:02:18;;;;;;;9.15;4.95;;;;;;;;;;4983739;28;20030;-83
2023/04/10 11:04:46;;;;;;;11.23;5.53;;;;;;;;;;5007014;28;20029;-83
2023/04/10 11:07:13;;;;;;;6.32;4.65;;;;;;;;;;4981005;28;20396;-83
2023/04/10 11:09:49;;;;;;;8.02;5.13;;;;;;;;;;4977627;28;20066;-83
2023/04/10 11:12:19;;;;;;;12.50;5.85;;;;;;;;;;4978609;28;20057;-83
2023/04/10 11:14:57;;;;;;;7.70;5.53;;;;;;;;;;4980318;28;20518;-84
2023/04/10 11:17:52;;;;;;;11.13;5.45;;;;;;;;;;5001918;28;20061;-83
2023/04/10 11:20:20;;;;;;;7.93;4.70;;;;;;;;;;4980009;28;20038;-78
2023/04/10 11:23:06;;;;;;;5.80;4.20;;;;;;;;;;4977128;28;20036;-78
2023/04/10 11:26:03;;;;;;;7.60;4.63;;;;;;;;;;4980558;28;20552;-77
2023/04/10 11:28:37;;;;;;;16.77;6.00;;;;;;;;;;4970101;28;20054;-78
2023/04/10 11:31:18;;;;;;;10.43;6.07;;;;;;;;;;4988566;28;20038;-77
2023/04/10 11:34:07;;;;;;;11.38;5.18;;;;;;;;;;4992167;28;20063;-78
2023/04/10 11:36:37;;;;;;;10.82;6.10;;;;;;;;;;4991735;28;20030;-78
2023/04/10 11:39:13;;;;;;;11.07;5.57;;;;;;;;;;4991536;28;20580;-78
2023/04/10 11:41:46;;;;;;;9.93;5.65;;;;;;;;;;4992712;28;20380;-85
2023/04/10 11:44:27;;;;;;;6.30;4.47;;;;;;;;;;4992585;28;20121;-85
2023/04/10 11:46:53;;;;;;;11.07;4.75;;;;;;;;;;4992846;28;20044;-85
2023/04/10 11:49:21;;;;;;;7.15;4.97;;;;;;;;;;4992873;28;20022;-84
2023/04/10 11:51:51;;;;;;;7.32;5.20;;;;;;;;;;4997456;28;20220;-84
2023/04/10 11:54:23;;;;;;;10.15;5.00;;;;;;;;;;4997441;28;20041;-85
2023/04/10 11:57:08;;;;;;;7.32;4.75;;;;;;;;;;4993664;28;20067;-85
2023/04/10 11:59:35;;;;;;;6.28;4.55;;;;;;;;;;4983662;28;20112;-83
2023/04/10 12:02:15;;;;;;;9.32;6.30;;;;;;;;;;4982676;28;20035;-83
2023/04/10 12:04:44;;;;;;;7.75;4.30;;;;;;;;;;4983734;28;20132;-84
2023/04/10 12:07:11;;;;;;;5.90;3.97;;;;;;;;;;4999068;28;20039;-85
2023/04/10 12:09:37;;;;;;;5.88;3.60;;;;;;;;;;4980628;28;20527;-84
2023/04/10 12:12:05;;;;;;;8.32;3.50;;;;;;;;;;4993254;28;20030;-85
2023/04/10 12:14:37;;;;;;;5.68;4.10;;;;;;;;;;4982133;28;20038;-83
2023/04/10 12:17:05;;;;;;;4.78;3.50;;;;;;;;;;4981379;28;20046;-85
2023/04/10 12:19:33;;;;;;;5.28;3.72;;;;;;;;;;4981506;28;20068;-84
2023/04/10 12:22:02;;;;;;;4.78;3.80;;;;;;;;;;4985292;28;20054;-87
2023/04/10 12:24:48;;;;;;;6.28;3.95;;;;;;;;;;4983008;28;20030;-86
2023/04/10 12:27:19;;;;;;;5.07;3.42;;;;;;;;;;4970061;28;20058;-87
2023/04/10 12:29:46;;;;;;;5.65;3.70;;;;;;;;;;5000093;28;20090;-87
2023/04/10 12:32:12;;;;;;;5.70;3.60;;;;;;;;;;4978180;28;20043;-87
2023/04/10 12:34:39;;;;;;;7.03;3.70;;;;;;;;;;4980315;28;20057;-85
2023/04/10 12:37:05;;;;;;;5.68;3.33;;;;;;;;;;4994552;28;20437;-85
2023/04/10 12:39:32;;;;;;;5.65;3.78;;;;;;;;;;4980976;28;20126;-85
2023/04/10 12:42:21;;;;;;;5.40;3.40;;;;;;;;;;4980994;28;20034;-85
2023/04/10 12:44:54;;;;;;;6.60;4.18;;;;;;;;;;4981966;28;20038;-82
2023/04/10 12:47:21;;;;;;;4.97;3.40;;;;;;;;;;4982239;28;20034;-82
2023/04/10 12:50:06;;;;;;;6.45;3.60;;;;;;;;;;4978925;28;20046;-82
2023/04/10 12:52:33;;;;;;;4.35;3.35;;;;;;;;;;4981653;28;20043;-82
2023/04/10 12:55:20;;;;;;;4.90;3.50;;;;;;;;;;4982977;28;20481;-83
2023/04/10 12:57:50;;;;;;;5.28;3.40;;;;;;;;;;4980205;28;20449;-81
2023/04/10 13:00:20;;;;;;;4.60;3.35;;;;;;;;;;4965594;28;20074;-80
2023/04/10 13:02:47;;;;;;;6.78;3.78;;;;;;;;;;4982053;28;20133;-81
2023/04/10 13:05:14;;;;;;;5.10;3.92;;;;;;;;;;4964769;28;20034;-81
2023/04/10 13:07:41;;;;;;;6.40;4.10;;;;;;;;;;4981424;28;20096;-80
2023/04/10 13:10:08;;;;;;;6.80;4.25;;;;;;;;;;4984672;28;20038;-81
2023/04/10 13:12:37;;;;;;;6.38;3.83;;;;;;;;;;4982974;28;20038;-79
2023/04/10 13:15:06;;;;;;;10.52;4.43;;;;;;;;;;4976629;28;20042;-79
2023/04/10 13:17:32;;;;;;;5.63;3.70;;;;;;;;;;4976025;28;20591;-79
2023/04/10 13:19:58;;;;;;;9.98;3.80;;;;;;;;;;4970071;28;20034;-81
2023/04/10 13:22:25;;;;;;;5.82;3.83;;;;;;;;;;4970428;28;20070;-81
2023/04/10 13:24:52;;;;;;;5.35;3.50;;;;;;;;;;4973700;28;20031;-81
2023/04/10 13:27:20;;;;;;;5.35;3.50;;;;;;;;;;4976731;28;20026;-81
2023/04/10 13:29:45;;;;;;;5.20;4.00;;;;;;;;;;4993434;28;20109;-80
2023/04/10 13:32:15;;;;;;;7.30;3.67;;;;;;;;;;4992213;28;20050;-80
2023/04/10 13:34:40;;;;;;;7.22;3.78;;;;;;;;;;4994290;28;20105;-79
2023/04/10 13:37:11;;;;;;;7.80;4.28;;;;;;;;;;4993813;28;20108;-81
2023/04/10 13:39:42;;;;;;;5.82;3.97;;;;;;;;;;4993173;28;20034;-80
2023/04/10 13:42:08;;;;;;;5.85;3.95;;;;;;;;;;4994756;28;20064;-81
2023/04/10 13:44:37;;;;;;;5.45;3.95;;;;;;;;;;4992867;28;20510;-79
2023/04/10 13:47:03;;;;;;;4.63;3.90;;;;;;;;;;4992534;28;20550;-79
2023/04/10 13:49:32;;;;;;;6.78;4.10;;;;;;;;;;5009895;28;20038;-80
2023/04/10 13:52:04;;;;;;;7.13;3.80;;;;;;;;;;4993803;28;20054;-80
2023/04/10 13:54:32;;;;;;;9.32;5.75;;;;;;;;;;4993909;28;20500;-79
2023/04/10 13:56:58;;;;;;;10.35;5.75;;;;;;;;;;5008526;28;20415;-81
2023/04/10 13:59:26;;;;;;;9.88;6.38;;;;;;;;;;5008406;28;20420;-81
2023/04/10 14:01:53;;;;;;;7.88;6.03;;;;;;;;;;5008373;28;20026;-77
2023/04/10 14:04:19;;;;;;;10.02;6.60;;;;;;;;;;5009390;28;20034;-76
2023/04/10 14:06:45;;;;;;;11.45;6.47;;;;;;;;;;4993571;28;20026;-75
2023/04/10 14:09:11;;;;;;;12.23;6.32;;;;;;;;;;4992153;28;20041;-77
2023/04/10 14:11:37;;;;;;;11.88;7.10;;;;;;;;;;4991945;28;20037;-77
2023/04/10 14:14:03;;;;;;;7.00;5.88;;;;;;;;;;4993907;28;20034;-77
2023/04/10 14:16:29;;;;;;;11.23;7.28;;;;;;;;;;4992394;28;20129;-76
2023/04/10 14:19:04;;;;;;;7.90;6.05;;;;;;;;;;5007678;28;20057;-77
2023/04/10 14:21:31;;;;;;;11.80;6.22;;;;;;;;;;4991880;28;20173;-77
2023/04/10 14:24:01;;;;;;;9.82;6.30;;;;;;;;;;4990371;28;20522;-78
2023/04/10 14:26:30;;;;;;;10.30;6.82;;;;;;;;;;4990079;28;20054;-82
2023/04/10 14:28:59;;;;;;;9.10;6.07;;;;;;;;;;4991579;28;20070;-82
2023/04/10 14:31:30;;;;;;;11.13;7.25;;;;;;;;;;4993203;28;20045;-85
2023/04/10 14:33:56;;;;;;;8.48;6.40;;;;;;;;;;4987764;28;20045;-85
2023/04/10 14:36:23;;;;;;;9.75;6.32;;;;;;;;;;4997599;28;20106;-83
2023/04/10 14:38:55;;;;;;;9.52;5.75;;;;;;;;;;4988432;28;20035;-83
2023/04/10 14:41:22;;;;;;;8.13;5.43;;;;;;;;;;4991478;28;20042;-85
2023/04/10 14:43:51;;;;;;;9.93;5.90;;;;;;;;;;4991066;28;20030;-83
2023/04/10 14:46:34;;;;;;;8.05;4.82;;;;;;;;;;4984742;28;20044;-84
2023/04/10 14:49:03;;;;;;;10.57;6.53;;;;;;;;;;4990269;28;20034;-81
2023/04/10 14:51:32;;;;;;;8.57;5.65;;;;;;;;;;4992677;28;20074;-83
2023/04/10 14:53:59;;;;;;;9.07;5.63;;;;;;;;;;4989009;28;20038;-84
2023/04/10 14:56:26;;;;;;;8.30;5.60;;;;;;;;;;4996385;28;20022;-83
2023/04/10 14:59:00;;;;;;;8.82;5.32;;;;;;;;;;4999733;28;20042;-82
2023/04/10 15:01:27;;;;;;;8.07;5.80;;;;;;;;;;4985686;28;20516;-84